Time;durP1;ratioP1;P1;durP2;ratioP2;P2;SDS_P1;SDS_P2;PMS_P1;PMS_P2;Temp;Humidity;BMP_temperature;BMP_pressure;BME280_temperature;BME280_humidity;BME280_pressure;Samples;Min_cycle;Max_cycle;Signal;HPM_P1;HPM_P2
2022/07/05 04:44:35;;;;;;;17.80;10.40;;;;;;;21.18;100.00;100151.38;5109485;27;20426;-73
2022/07/05 04:47:01;;;;;;;19.60;11.50;;;;;;;20.91;100.00;100097.19;5109592;28;20032;-75
2022/07/05 04:49:26;;;;;;;20.77;12.50;;;;;;;21.02;100.00;100132.66;5109007;28;20027;-74
2022/07/05 04:51:51;;;;;;;17.17;11.10;;;;;;;21.21;100.00;100148.59;5109313;28;20717;-74
2022/07/05 04:54:17;;;;;;;16.23;9.20;;;;;;;21.72;100.00;100155.28;5107959;28;20028;-73
2022/07/05 04:56:42;;;;;;;21.98;10.50;;;;;;;21.81;100.00;100156.44;5108006;28;20440;-74
2022/07/05 04:59:08;;;;;;;14.73;8.90;;;;;;;22.01;100.00;100151.47;5108563;28;20115;-75
2022/07/05 05:01:33;;;;;;;10.88;6.68;;;;;;;21.90;100.00;100109.16;5109498;28;20050;-75
2022/07/05 05:03:59;;;;;;;13.48;5.63;;;;;;;21.67;100.00;100139.25;5107860;28;20123;-73
2022/07/05 05:06:24;;;;;;;12.02;5.40;;;;;;;22.95;100.00;100165.22;5107488;28;20050;-75
2022/07/05 05:08:50;;;;;;;6.43;3.85;;;;;;;22.43;100.00;100169.06;5108712;28;20035;-73
2022/07/05 05:11:15;;;;;;;5.80;4.63;;;;;;;22.76;100.00;100154.59;5109071;28;20052;-74
2022/07/05 05:13:45;;;;;;;7.55;4.40;;;;;;;22.99;100.00;100166.63;5107795;28;20042;-72
2022/07/05 05:16:10;;;;;;;6.57;4.68;;;;;;;23.08;100.00;100164.16;5109022;28;20020;-74
2022/07/05 05:18:36;;;;;;;6.72;4.43;;;;;;;23.01;100.00;100180.31;5107426;28;20100;-73
2022/07/05 05:21:01;;;;;;;6.15;4.20;;;;;;;23.04;100.00;100092.69;5106872;28;20027;-73
2022/07/05 05:23:27;;;;;;;10.27;4.57;;;;;;;23.50;100.00;100138.44;5107542;28;20038;-74
2022/07/05 05:25:52;;;;;;;6.00;3.67;;;;;;;23.61;100.00;100178.19;5107631;28;20020;-74
2022/07/05 05:28:18;;;;;;;5.82;3.47;;;;;;;23.42;100.00;100167.59;5107738;28;20024;-74
2022/07/05 05:30:43;;;;;;;8.55;4.35;;;;;;;23.88;100.00;100133.63;5107065;28;20024;-74
2022/07/05 05:33:08;;;;;;;7.35;4.80;;;;;;;24.15;100.00;100139.22;5108801;28;20068;-73
2022/07/05 05:35:34;;;;;;;8.57;4.80;;;;;;;24.82;100.00;100194.31;5107052;28;20110;-74
2022/07/05 05:37:59;;;;;;;4.88;3.20;;;;;;;24.18;100.00;100156.34;5107326;28;20027;-72
2022/07/05 05:40:25;;;;;;;5.25;3.38;;;;;;;24.18;100.00;100177.97;5108437;28;20114;-74
2022/07/05 05:42:53;;;;;;;5.28;3.08;;;;;;;24.25;100.00;100134.06;5106991;28;20059;-73
2022/07/05 05:45:20;;;;;;;6.18;3.20;;;;;;;24.81;100.00;100177.06;5108351;28;20016;-73
2022/07/05 05:47:53;;;;;;;6.28;3.80;;;;;;;24.46;100.00;100119.31;5108370;28;20081;-73
2022/07/05 05:50:21;;;;;;;8.05;4.32;;;;;;;24.74;100.00;100148.13;5108282;28;20031;-74
2022/07/05 05:52:47;;;;;;;5.72;3.00;;;;;;;25.19;100.00;100189.44;5106733;28;20020;-73
2022/07/05 05:55:13;;;;;;;4.78;2.63;;;;;;;24.95;100.00;100137.69;5098308;28;20032;-74
2022/07/05 05:57:38;;;;;;;9.07;3.10;;;;;;;24.79;100.00;100139.94;5093500;28;20027;-74
2022/07/05 06:00:05;;;;;;;4.60;2.80;;;;;;;24.89;100.00;100192.84;5093277;28;20504;-76
2022/07/05 06:02:31;;;;;;;5.68;2.78;;;;;;;24.60;100.00;100155.41;5094208;28;20559;-73
2022/07/05 06:04:56;;;;;;;5.60;2.90;;;;;;;24.98;100.00;100181.66;5094465;28;20058;-75
2022/07/05 06:07:22;;;;;;;5.60;2.90;;;;;;;25.23;100.00;100131.78;5094596;28;20118;-72
2022/07/05 06:09:47;;;;;;;4.32;2.70;;;;;;;25.76;100.00;100200.91;5093181;28;20020;-75
2022/07/05 06:12:13;;;;;;;4.72;2.80;;;;;;;25.42;100.00;100188.31;5094227;28;20024;-75
2022/07/05 06:14:39;;;;;;;6.00;2.60;;;;;;;25.10;100.00;100140.78;5094281;28;20020;-74
2022/07/05 06:17:04;;;;;;;7.20;3.08;;;;;;;25.78;100.00;100152.09;5093949;28;20090;-74
2022/07/05 06:19:29;;;;;;;6.75;3.17;;;;;;;25.90;100.00;100139.75;5092984;28;20111;-72
2022/07/05 06:21:55;;;;;;;5.57;2.58;;;;;;;25.75;100.00;100143.72;5094143;28;20447;-75
2022/07/05 06:24:20;;;;;;;6.40;2.80;;;;;;;25.82;100.00;100176.09;5109441;28;20371;-74
2022/07/05 06:26:46;;;;;;;6.57;2.80;;;;;;;26.78;100.00;100163.88;5092885;28;20650;-73
2022/07/05 06:29:11;;;;;;;7.82;2.78;;;;;;;26.53;100.00;100130.53;5092465;28;20023;-72
2022/07/05 06:31:36;;;;;;;9.13;3.60;;;;;;;27.14;100.00;100183.97;5092638;28;20058;-74
2022/07/05 06:34:02;;;;;;;7.40;3.08;;;;;;;26.78;100.00;100192.59;5093693;28;20483;-75
2022/07/05 06:36:27;;;;;;;11.85;4.53;;;;;;;26.72;100.00;100197.56;5092790;28;20458;-74
2022/07/05 06:38:53;;;;;;;15.68;6.65;;;;;;;26.92;100.00;100181.69;5092493;28;20059;-74
2022/07/05 06:41:18;;;;;;;7.55;3.80;;;;;;;27.47;100.00;100197.47;5092591;28;20560;-75
2022/07/05 06:43:43;;;;;;;7.40;3.40;;;;;;;27.13;100.00;100087.50;5092186;28;20498;-75
2022/07/05 06:46:09;;;;;;;7.30;3.50;;;;;;;27.30;100.00;100192.03;5092419;28;20016;-75
2022/07/05 06:48:35;;;;;;;8.23;3.50;;;;;;;27.38;100.00;100139.06;5093194;28;20024;-75
2022/07/05 06:51:00;;;;;;;6.22;3.72;;;;;;;26.54;100.00;100143.44;5093443;28;20024;-75
2022/07/05 06:53:26;;;;;;;6.95;3.53;;;;;;;27.79;100.00;100188.19;5091792;28;20035;-75
2022/07/05 06:55:51;;;;;;;5.88;3.35;;;;;;;27.48;100.00;100186.03;5091963;28;20424;-75
2022/07/05 06:58:17;;;;;;;6.15;3.55;;;;;;;27.43;100.00;100176.84;5073241;28;20031;-75
2022/07/05 07:00:43;;;;;;;7.07;3.65;;;;;;;27.32;100.00;100139.63;5073287;28;20027;-74
2022/07/05 07:03:09;;;;;;;7.63;4.03;;;;;;;28.14;97.16;100196.13;5071668;28;20486;-74
2022/07/05 07:05:34;;;;;;;9.32;4.57;;;;;;;27.41;95.53;100126.53;5071239;28;20024;-74
2022/07/05 07:10:44;;;;;;;11.10;4.95;;;;;;;27.89;100.00;100141.91;5073055;28;20035;-72
2022/07/05 07:13:09;;;;;;;13.00;6.50;;;;;;;27.52;94.09;100142.97;5071629;28;20024;-75
2022/07/05 07:15:34;;;;;;;10.93;6.38;;;;;;;27.92;88.71;100112.03;5071356;28;20458;-76
2022/07/05 07:18:00;;;;;;;10.30;6.93;;;;;;;28.04;85.33;100171.00;5070772;28;20025;-75
2022/07/05 07:20:26;;;;;;;10.10;6.57;;;;;;;27.84;86.58;100146.75;5071113;28;20474;-74
2022/07/05 07:22:52;;;;;;;12.18;5.97;;;;;;;28.38;83.67;100148.41;5072278;28;20482;-75
2022/07/05 07:25:20;;;;;;;8.35;5.50;;;;;;;28.82;82.20;100185.88;5071294;28;20029;-74
2022/07/05 07:27:52;;;;;;;9.07;5.20;;;;;;;28.97;82.02;100193.03;5072198;28;20028;-75
2022/07/05 07:30:22;;;;;;;9.68;5.38;;;;;;;27.84;85.07;100175.53;5073142;28;20111;-75
2022/07/05 07:32:47;;;;;;;12.30;5.57;;;;;;;28.41;81.39;100184.72;5070981;28;20457;-75
2022/07/05 07:35:13;;;;;;;8.05;4.30;;;;;;;28.92;61.50;100181.38;5070906;28;20028;-75
2022/07/05 07:37:39;;;;;;;9.55;5.50;;;;;;;28.14;74.35;100135.13;5072194;28;20116;-75
2022/07/05 07:40:05;;;;;;;10.98;6.03;;;;;;;28.61;73.26;100112.94;5070862;28;20481;-75
2022/07/05 07:42:31;;;;;;;9.85;6.00;;;;;;;29.11;70.53;100137.44;5070900;28;20040;-75
2022/07/05 07:44:56;;;;;;;6.00;4.70;;;;;;;29.34;72.46;100168.31;5070850;28;20030;-74
2022/07/05 07:47:22;;;;;;;15.18;5.25;;;;;;;28.92;71.21;100166.47;5071018;28;20032;-74
2022/07/05 07:49:47;;;;;;;8.80;4.70;;;;;;;29.45;67.97;100168.88;5072196;28;20035;-75
2022/07/05 07:52:14;;;;;;;10.07;5.78;;;;;;;30.04;72.29;100182.78;5071950;28;20024;-75
2022/07/05 07:54:39;;;;;;;14.45;7.95;;;;;;;29.40;66.59;100125.75;5070471;28;20103;-75
2022/07/05 07:57:05;;;;;;;15.02;5.88;;;;;;;29.46;64.01;100173.13;5071900;28;20112;-75
2022/07/05 07:59:34;;;;;;;6.90;4.28;;;;;;;29.43;57.74;100152.47;5071926;28;20024;-75
2022/07/05 08:02:00;;;;;;;5.75;3.67;;;;;;;29.91;56.91;100172.78;5071800;28;20364;-75
2022/07/05 08:04:25;;;;;;;6.05;3.70;;;;;;;29.75;56.14;100125.56;5071741;28;20028;-75
2022/07/05 08:06:51;;;;;;;7.53;3.40;;;;;;;29.84;58.37;100150.78;5070503;28;20025;-72
2022/07/05 08:09:19;;;;;;;4.95;3.75;;;;;;;29.57;53.23;100124.84;5070498;28;20033;-73
2022/07/05 08:11:46;;;;;;;4.32;3.05;;;;;;;29.91;51.11;100173.59;5070489;28;20119;-73
2022/07/05 08:14:13;;;;;;;4.65;2.95;;;;;;;30.18;48.29;100175.09;5070349;28;20073;-72
2022/07/05 08:16:38;;;;;;;7.15;3.13;;;;;;;30.64;46.81;100161.31;5071673;28;20055;-72
2022/07/05 08:21:48;;;;;;;5.38;3.63;;;;;;;30.16;48.09;100153.44;5071520;28;20040;-75
2022/07/05 08:24:14;;;;;;;11.00;3.65;;;;;;;30.28;49.26;100157.44;5071446;28;20024;-74
2022/07/05 08:26:40;;;;;;;6.38;3.60;;;;;;;30.34;46.88;100164.63;5071500;28;20475;-75
2022/07/05 08:29:10;;;;;;;7.72;3.65;;;;;;;30.15;47.88;100117.69;5071586;28;20107;-75
2022/07/05 08:31:42;;;;;;;7.32;3.35;;;;;;;30.03;46.25;100158.34;5070485;28;20116;-75
2022/07/05 08:34:11;;;;;;;5.05;3.20;;;;;;;30.09;44.01;100071.13;5070261;28;20081;-74
2022/07/05 08:36:37;;;;;;;4.95;3.17;;;;;;;31.07;45.38;100101.44;5070048;28;20458;-75
2022/07/05 08:39:03;;;;;;;4.97;3.28;;;;;;;31.74;43.31;100150.75;5071432;28;20078;-75
2022/07/05 08:41:29;;;;;;;8.10;3.17;;;;;;;30.86;44.12;100117.81;5070390;28;20024;-75
2022/07/05 08:43:56;;;;;;;6.70;3.50;;;;;;;31.21;43.73;100113.88;5071431;28;20048;-74
2022/07/05 08:46:25;;;;;;;5.88;3.40;;;;;;;30.58;43.23;100114.69;5071064;28;20021;-74
2022/07/05 08:48:51;;;;;;;8.45;3.65;;;;;;;31.26;44.32;100150.97;5070286;28;20055;-74
2022/07/05 08:51:22;;;;;;;5.25;3.45;;;;;;;31.67;44.89;100155.06;5071472;28;20059;-74
2022/07/05 08:53:49;;;;;;;5.38;3.13;;;;;;;30.60;46.50;100131.13;5070080;28;20025;-74
2022/07/05 08:56:16;;;;;;;7.10;3.88;;;;;;;30.77;48.54;100111.72;5071182;28;20033;-74
2022/07/05 08:58:42;;;;;;;5.97;3.22;;;;;;;30.60;47.06;100107.47;5070156;28;20462;-74
2022/07/05 09:01:10;;;;;;;7.22;3.25;;;;;;;30.88;46.60;100117.63;5069751;28;20028;-75
2022/07/05 09:03:46;;;;;;;8.40;3.65;;;;;;;30.98;47.12;100100.66;5069762;28;20139;-74
2022/07/05 09:06:13;;;;;;;7.93;3.65;;;;;;;31.10;46.85;100115.06;5071170;28;20039;-75
2022/07/05 09:08:40;;;;;;;5.28;3.33;;;;;;;31.54;46.92;100139.84;5071011;28;20024;-74
2022/07/05 09:11:12;;;;;;;9.05;3.50;;;;;;;32.06;46.38;100157.63;5071153;28;20307;-74
2022/07/05 09:13:40;;;;;;;8.18;3.33;;;;;;;31.31;43.50;100111.84;5069862;28;20017;-73
2022/07/05 09:16:05;;;;;;;7.20;3.38;;;;;;;31.93;41.70;100141.63;5070918;28;20036;-74
2022/07/05 09:18:54;;;;;;;5.13;3.00;;;;;;;32.55;40.70;100148.34;5070922;28;20471;-74
2022/07/05 09:21:19;;;;;;;8.98;3.63;;;;;;;32.48;42.71;100157.97;5069625;28;20047;-74
2022/07/05 09:23:55;;;;;;;11.40;3.53;;;;;;;32.79;42.84;100155.16;5069451;28;20025;-74
2022/07/05 09:26:21;;;;;;;6.80;3.38;;;;;;;31.93;45.70;100160.84;5069552;28;20375;-74
2022/07/05 09:28:57;;;;;;;5.53;3.78;;;;;;;32.58;43.19;100152.44;5069662;28;20039;-74
2022/07/05 09:31:34;;;;;;;5.97;3.45;;;;;;;32.16;44.60;100153.75;5072971;28;20055;-74
2022/07/05 09:34:11;;;;;;;6.03;4.50;;;;;;;32.27;46.97;100097.22;5073384;28;20028;-74
2022/07/05 09:36:54;;;;;;;9.15;3.60;;;;;;;31.59;44.54;100090.16;5074300;28;20035;-75
2022/07/05 09:39:37;;;;;;;5.60;3.42;;;;;;;31.93;44.24;100142.41;5074330;28;20474;-74
2022/07/05 09:42:20;;;;;;;5.38;3.40;;;;;;;32.50;46.93;100141.97;5074463;28;20115;-74
2022/07/05 09:44:51;;;;;;;6.60;3.63;;;;;;;32.56;45.49;100120.19;5074617;28;20098;-74
2022/07/05 09:47:21;;;;;;;7.72;3.30;;;;;;;32.53;42.42;100078.38;5090116;28;20032;-74
2022/07/05 09:49:51;;;;;;;7.50;3.50;;;;;;;32.70;47.27;100122.00;5073344;28;20036;-74
2022/07/05 09:52:27;;;;;;;5.95;3.38;;;;;;;31.87;47.46;100122.03;5072853;28;20048;-74
2022/07/05 09:55:11;;;;;;;6.55;3.42;;;;;;;32.34;47.27;100124.47;5072925;28;20119;-74
2022/07/05 09:57:41;;;;;;;5.55;3.60;;;;;;;31.14;51.80;100068.25;5074218;28;20039;-74
2022/07/05 10:00:15;;;;;;;4.57;3.60;;;;;;;31.96;46.35;100101.78;5074210;28;20032;-74
2022/07/05 10:02:40;;;;;;;4.60;3.40;;;;;;;32.43;47.11;100112.84;5074359;28;20420;-73
2022/07/05 10:05:26;;;;;;;6.15;3.17;;;;;;;32.63;44.77;100052.59;5074110;28;20086;-74
2022/07/05 10:07:53;;;;;;;7.70;3.72;;;;;;;33.05;47.41;100103.66;5073838;28;20029;-74
2022/07/05 10:10:24;;;;;;;6.57;3.13;;;;;;;32.50;43.83;100113.00;5073833;28;20031;-74
2022/07/05 10:12:55;;;;;;;4.88;3.17;;;;;;;32.32;41.76;100058.84;5072769;28;20028;-74
2022/07/05 10:15:22;;;;;;;4.78;3.10;;;;;;;33.48;42.42;100101.16;5073716;28;20029;-74
2022/07/05 10:18:03;;;;;;;4.80;2.92;;;;;;;33.58;41.78;100097.19;5073887;28;20478;-73
2022/07/05 10:20:43;;;;;;;8.57;2.97;;;;;;;33.23;40.48;100035.53;5074129;28;20021;-74
2022/07/05 10:23:11;;;;;;;8.40;3.08;;;;;;;32.24;41.78;100097.59;5072283;28;20052;-74
2022/07/05 10:25:38;;;;;;;5.10;3.10;;;;;;;32.18;42.72;100091.22;5072407;28;20071;-73
2022/07/05 10:28:06;;;;;;;4.82;2.97;;;;;;;32.55;40.66;100055.31;5073570;28;20116;-72
2022/07/05 10:30:33;;;;;;;7.32;2.60;;;;;;;33.09;40.18;100069.84;5073558;28;20025;-72
2022/07/05 10:33:01;;;;;;;6.72;2.88;;;;;;;34.08;39.18;100046.91;5072543;28;20036;-72
2022/07/05 10:35:27;;;;;;;3.45;3.00;;;;;;;34.20;40.13;100036.63;5072241;28;20086;-72
2022/07/05 10:37:53;;;;;;;3.85;2.80;;;;;;;33.09;38.53;100039.03;5072005;28;20065;-73
2022/07/05 10:40:19;;;;;;;5.10;2.90;;;;;;;33.02;39.66;100038.13;5073615;28;20063;-72
2022/07/05 10:42:54;;;;;;;6.28;3.08;;;;;;;33.28;38.31;100032.31;5073121;28;20123;-72
2022/07/05 10:45:26;;;;;;;4.82;2.75;;;;;;;32.56;37.70;100084.13;5073268;28;20036;-72
2022/07/05 10:48:16;;;;;;;5.35;2.67;;;;;;;32.79;37.46;100091.91;5073289;28;20036;-72
2022/07/05 10:51:05;;;;;;;5.35;2.80;;;;;;;33.33;37.68;100074.78;5072166;28;20437;-73
2022/07/05 10:53:36;;;;;;;5.68;2.78;;;;;;;32.72;37.72;100070.78;5071946;28;20368;-73
2022/07/05 10:56:05;;;;;;;6.57;2.78;;;;;;;33.26;36.73;100074.69;5071760;28;20024;-73
2022/07/05 10:59:11;;;;;;;4.78;3.00;;;;;;;33.16;36.61;100070.72;5073464;28;20064;-72
2022/07/05 11:01:42;;;;;;;4.85;2.80;;;;;;;33.09;37.26;100072.47;5072272;28;20390;-72
2022/07/05 11:04:29;;;;;;;5.97;2.78;;;;;;;32.79;36.13;100020.78;5072913;28;20028;-72
2022/07/05 11:06:55;;;;;;;2.92;2.47;;;;;;;33.33;34.75;100018.56;5071568;28;20067;-72
2022/07/05 11:09:21;;;;;;;4.93;2.88;;;;;;;33.58;37.40;100004.84;5071386;28;20494;-72
2022/07/05 11:12:01;;;;;;;3.97;2.78;;;;;;;32.62;38.06;100062.34;5071622;28;20024;-73
2022/07/05 11:14:26;;;;;;;3.55;2.90;;;;;;;33.02;37.92;100059.19;5072794;28;20035;-72
2022/07/05 11:17:25;;;;;;;6.03;2.78;;;;;;;33.21;36.44;100052.53;5073108;28;20028;-72
2022/07/05 11:20:02;;;;;;;8.30;3.03;;;;;;;33.51;36.41;99953.03;5072231;28;20089;-73
2022/07/05 11:22:28;;;;;;;4.40;2.70;;;;;;;34.04;37.15;100050.09;5071030;28;20029;-73
2022/07/05 11:24:55;;;;;;;7.53;3.25;;;;;;;33.23;39.63;100000.44;5071254;28;20028;-73
2022/07/05 11:27:20;;;;;;;5.13;3.00;;;;;;;33.61;37.82;100030.84;5072184;28;20032;-73
2022/07/05 11:29:47;;;;;;;5.88;3.10;;;;;;;33.05;39.02;100036.94;5071228;28;20390;-72
2022/07/05 11:32:14;;;;;;;7.63;3.10;;;;;;;33.08;38.81;99981.22;5071286;28;20025;-74
2022/07/05 11:34:42;;;;;;;7.85;2.97;;;;;;;33.49;36.93;99987.53;5072101;28;20028;-72
2022/07/05 11:37:26;;;;;;;4.20;3.30;;;;;;;32.96;38.42;100009.84;5072118;28;20033;-72
2022/07/05 11:40:10;;;;;;;6.68;3.47;;;;;;;32.99;38.92;100041.13;5071178;28;20054;-72
2022/07/05 11:42:46;;;;;;;4.97;3.15;;;;;;;33.26;37.84;100032.50;5070453;28;20059;-72
2022/07/05 11:45:11;;;;;;;6.35;3.40;;;;;;;33.08;38.49;100015.50;5070858;28;20548;-72
2022/07/05 11:47:37;;;;;;;4.75;2.90;;;;;;;32.98;38.45;100025.50;5071822;28;20020;-72
2022/07/05 11:50:03;;;;;;;6.28;3.60;;;;;;;33.12;39.79;100024.66;5071746;28;20027;-72
2022/07/05 11:52:30;;;;;;;5.75;3.03;;;;;;;33.47;39.58;100010.59;5071819;28;20024;-72
2022/07/05 11:54:56;;;;;;;5.35;3.65;;;;;;;33.01;39.91;99962.69;5070570;28;20024;-73
2022/07/05 11:57:23;;;;;;;8.68;3.45;;;;;;;32.13;39.26;99914.56;5071801;28;20101;-72
2022/07/05 11:59:49;;;;;;;5.82;3.45;;;;;;;32.89;39.36;100000.22;5070526;28;20036;-72
2022/07/05 12:02:15;;;;;;;5.53;3.25;;;;;;;32.90;39.66;99959.69;5071944;28;20506;-72
2022/07/05 12:04:57;;;;;;;6.70;3.47;;;;;;;33.24;39.16;99967.75;5070563;28;20128;-72
2022/07/05 12:07:33;;;;;;;5.47;3.67;;;;;;;33.84;38.66;100005.06;5070234;28;20036;-73
2022/07/05 12:12:44;;;;;;;6.68;3.70;;;;;;;32.77;39.64;99970.09;5071727;28;20047;-72
2022/07/05 12:15:20;;;;;;;4.65;3.30;;;;;;;33.38;39.25;99989.81;5070499;28;20459;-72
2022/07/05 12:17:51;;;;;;;3.65;3.35;;;;;;;33.34;39.36;99983.28;5071839;28;20029;-72
2022/07/05 12:20:24;;;;;;;9.20;3.70;;;;;;;33.28;39.20;99982.19;5069788;28;20032;-72
2022/07/05 12:22:50;;;;;;;4.53;3.45;;;;;;;33.16;41.13;99946.78;5070459;28;20072;-72
2022/07/05 12:25:21;;;;;;;5.00;3.40;;;;;;;33.37;40.05;99933.63;5070424;28;20028;-72
2022/07/05 12:27:48;;;;;;;;;;;;;;;33.40;41.71;99978.06;5072295;28;20375;-73
2022/07/05 12:30:15;;;;;;;6.70;3.17;;;;;;;33.63;39.48;99936.50;5070194;28;19904;-73
2022/07/05 12:33:00;;;;;;;6.20;3.40;;;;;;;33.10;40.40;99929.13;5070139;28;20115;-74
2022/07/05 12:35:38;;;;;;;5.60;3.92;;;;;;;33.07;40.65;99976.94;5071332;28;20166;-73
2022/07/05 12:38:10;;;;;;;4.65;3.63;;;;;;;33.05;40.27;99977.13;5070368;28;20028;-73
2022/07/05 12:40:39;;;;;;;5.80;3.88;;;;;;;33.11;38.23;99967.66;5069778;28;20372;-73
2022/07/05 12:43:09;;;;;;;8.80;4.25;;;;;;;32.89;39.76;99973.88;5069720;28;20048;-73
2022/07/05 12:45:36;;;;;;;11.73;4.15;;;;;;;33.44;38.49;99915.22;5069996;28;20029;-73
2022/07/05 12:48:04;;;;;;;6.82;3.63;;;;;;;33.00;38.66;99947.06;5070000;28;20445;-73
2022/07/05 12:50:46;;;;;;;6.38;3.97;;;;;;;33.32;38.60;99869.28;5070137;28;20012;-73
2022/07/05 12:59:01;;;;;;;6.72;4.00;;;;;;;33.74;38.49;99949.16;5071223;28;20416;-73
2022/07/05 13:01:37;;;;;;;6.72;4.05;;;;;;;34.08;37.78;99957.13;5071358;28;20115;-73
2022/07/05 13:04:15;;;;;;;7.97;3.70;;;;;;;33.61;37.32;99962.25;5070961;28;20508;-73
2022/07/05 13:06:54;;;;;;;6.80;3.80;;;;;;;33.75;38.59;99908.56;5073911;28;20020;-73
2022/07/05 13:09:31;;;;;;;9.77;3.85;;;;;;;33.88;38.50;99958.78;5075431;28;20024;-73
2022/07/05 13:12:21;;;;;;;5.20;3.70;;;;;;;33.66;37.51;99964.31;5075086;28;20020;-73
2022/07/05 13:14:47;;;;;;;6.63;3.70;;;;;;;33.70;37.45;99907.50;5073377;28;20036;-73
2022/07/05 13:17:14;;;;;;;5.78;3.60;;;;;;;33.41;37.64;99900.56;5073742;28;20536;-72
2022/07/05 13:19:42;;;;;;;6.45;3.63;;;;;;;33.50;38.90;99910.00;5073808;28;20028;-72
2022/07/05 13:22:08;;;;;;;6.88;3.80;;;;;;;33.92;38.23;99943.38;5073580;28;20021;-72
2022/07/05 13:24:34;;;;;;;7.13;4.00;;;;;;;33.94;38.70;99944.00;5073269;28;20446;-72
2022/07/05 13:27:00;;;;;;;7.13;3.88;;;;;;;33.25;39.56;99903.50;5073573;28;20066;-73
2022/07/05 13:29:26;;;;;;;6.15;3.90;;;;;;;33.60;38.36;99910.47;5074940;28;20024;-73
2022/07/05 13:31:52;;;;;;;7.60;3.88;;;;;;;33.67;38.47;99886.78;5074602;28;20512;-72
2022/07/05 13:34:17;;;;;;;6.65;3.80;;;;;;;33.74;40.07;99930.66;5074664;28;20086;-74
2022/07/05 13:36:43;;;;;;;5.05;4.05;;;;;;;33.54;39.62;99895.41;5074437;28;20024;-74
2022/07/05 13:39:11;;;;;;;6.35;4.03;;;;;;;33.43;40.24;99884.56;5073339;28;20024;-74
2022/07/05 13:41:37;;;;;;;8.82;4.15;;;;;;;34.07;40.08;99910.59;5073232;28;20024;-73
2022/07/05 13:44:03;;;;;;;8.80;4.03;;;;;;;33.45;39.76;99928.22;5074529;28;20405;-73
2022/07/05 13:46:28;;;;;;;6.43;4.00;;;;;;;33.20;40.49;99888.22;5073366;28;20027;-74
2022/07/05 13:48:53;;;;;;;6.25;4.20;;;;;;;32.91;41.68;99901.53;5073045;28;20024;-72
2022/07/05 13:51:19;;;;;;;8.52;4.35;;;;;;;32.94;40.97;99919.59;5074297;28;20489;-74
2022/07/05 13:53:44;;;;;;;6.22;4.30;;;;;;;33.17;42.95;99869.34;5072692;28;20433;-74
2022/07/05 13:56:10;;;;;;;6.32;4.30;;;;;;;33.01;42.40;99909.16;5074087;28;20028;-74
2022/07/05 13:58:35;;;;;;;7.72;4.22;;;;;;;33.49;41.65;99903.09;5072975;28;20193;-72
2022/07/05 14:01:02;;;;;;;6.88;4.80;;;;;;;33.14;41.59;99898.75;5072998;28;20032;-72
2022/07/05 14:03:28;;;;;;;7.32;4.88;;;;;;;33.14;41.66;99846.00;5074348;28;20016;-72
2022/07/05 14:05:54;;;;;;;8.20;4.35;;;;;;;33.24;42.92;99910.56;5073931;28;20038;-72
2022/07/05 14:08:21;;;;;;;7.70;4.20;;;;;;;33.37;41.70;99872.94;5074253;28;20394;-72
2022/07/05 14:10:51;;;;;;;4.93;4.43;;;;;;;32.96;42.17;99858.81;5074092;28;20494;-73
2022/07/05 14:13:21;;;;;;;8.88;4.55;;;;;;;33.38;42.60;99889.59;5072878;28;20028;-72
2022/07/05 14:15:48;;;;;;;9.50;4.57;;;;;;;32.79;43.01;99850.31;5073408;28;20506;-75
2022/07/05 14:18:15;;;;;;;6.65;4.30;;;;;;;33.33;43.38;99833.97;5072847;28;20506;-73
2022/07/05 14:20:42;;;;;;;6.75;4.05;;;;;;;32.69;42.88;99817.38;5072699;28;20486;-74
2022/07/05 14:23:08;;;;;;;8.15;4.45;;;;;;;33.01;42.34;99843.25;5072248;28;20086;-74
2022/07/05 14:25:34;;;;;;;7.35;4.70;;;;;;;33.44;42.15;99833.44;5072375;28;20031;-75
2022/07/05 14:28:00;;;;;;;10.50;4.57;;;;;;;33.42;41.29;99886.38;5071232;28;20020;-71
2022/07/05 14:30:27;;;;;;;12.55;4.57;;;;;;;33.55;41.69;99838.19;5052484;28;20040;-75
2022/07/05 14:32:53;;;;;;;6.97;4.28;;;;;;;33.87;41.98;99871.88;5052314;28;20119;-71
2022/07/05 14:35:19;;;;;;;5.40;4.40;;;;;;;33.96;41.49;99874.16;5072533;28;20110;-71
2022/07/05 14:37:44;;;;;;;5.65;4.63;;;;;;;33.97;41.29;99859.94;5084932;28;20032;-73
2022/07/05 14:40:10;;;;;;;9.45;4.35;;;;;;;32.94;41.96;99872.16;5071902;28;20036;-71
2022/07/05 14:42:35;;;;;;;10.75;4.38;;;;;;;32.97;41.91;99837.56;5060618;28;20044;-71
2022/07/05 14:45:00;;;;;;;7.15;3.92;;;;;;;34.11;40.98;99867.97;5076657;28;20020;-71
2022/07/05 14:47:26;;;;;;;7.53;4.53;;;;;;;33.63;43.11;99867.06;5072019;28;20063;-71
2022/07/05 14:49:53;;;;;;;8.95;4.50;;;;;;;33.02;43.88;99848.31;5071710;28;20498;-69
